LELC/MJV METAR and TAF weather

Enter ICAO airport designator
Station Type Date Time Source
LELC METAR 2019/04/25 10:00 UTC NOAA

LELC 251000Z 22014KT 190V270 9999 FEW030 20/13 Q1012 NOSIG


Station Type Date Time Source
LELC Decoded METAR 2019/04/25 10:00 UTC NOAA

Murcia / San Javier, Spain (LELC) 37-47N 000-48W 3M
Apr 25, 2019 - 06:00 AM EDT / 2019.04.25 1000 UTC
Wind: from the SW (220 degrees) at 16 MPH (14 KT) (direction variable):0
Visibility: greater than 7 mile(s):0
Sky conditions: mostly clear
Temperature: 68 F (20 C)
Dew Point: 55 F (13 C)
Relative Humidity: 64%
Pressure (altimeter): 29.88 in. Hg (1012 hPa)
ob: LELC 251000Z 22014KT 190V270 9999 FEW030 20/13 Q1012 NOSIG
cycle: 10

Station Type Date Time Source
LELC TAF 2019/04/25 06:27 UTC NOAA

TAF LELC 250500Z 2506/2606 22008KT 9999 FEW030 TX22/2513Z TN11/2606Z
BECMG 2506/2508 22018KT
TEMPO 2508/2515 22020G32KT
BECMG 2517/2520 31008KT

Example: see airport list